sensor_id;sensor_type;location;lat;lon;timestamp;temperature;humidity
12853;DHT22;6495;51.808;7.478;2023-01-29T00:00:08;-0.10;99.90
12853;DHT22;6495;51.808;7.478;2023-01-29T00:02:39;-0.20;99.90
12853;DHT22;6495;51.808;7.478;2023-01-29T00:05:08;-0.20;99.90
12853;DHT22;6495;51.808;7.478;2023-01-29T00:07:58;-0.20;99.90
12853;DHT22;6495;51.808;7.478;2023-01-29T00:10:26;-0.20;99.90
12853;DHT22;6495;51.808;7.478;2023-01-29T00:12:54;-0.20;99.90
12853;DHT22;6495;51.808;7.478;2023-01-29T00:15:22;-0.20;99.90
12853;DHT22;6495;51.808;7.478;2023-01-29T00:17:50;-0.20;99.90
12853;DHT22;6495;51.808;7.478;2023-01-29T00:20:18;-0.20;99.90
12853;DHT22;6495;51.808;7.478;2023-01-29T00:22:46;-0.20;99.90
12853;DHT22;6495;51.808;7.478;2023-01-29T00:25:16;-0.20;99.90
12853;DHT22;6495;51.808;7.478;2023-01-29T00:27:44;-0.20;99.90
12853;DHT22;6495;51.808;7.478;2023-01-29T00:30:13;-0.20;99.90
12853;DHT22;6495;51.808;7.478;2023-01-29T00:32:45;-0.30;99.90
12853;DHT22;6495;51.808;7.478;2023-01-29T00:35:13;-0.30;99.90
12853;DHT22;6495;51.808;7.478;2023-01-29T00:37:42;-0.20;99.90
12853;DHT22;6495;51.808;7.478;2023-01-29T00:40:10;-0.20;99.90
12853;DHT22;6495;51.808;7.478;2023-01-29T00:42:43;-0.20;99.90
12853;DHT22;6495;51.808;7.478;2023-01-29T00:45:29;-0.20;99.90
12853;DHT22;6495;51.808;7.478;2023-01-29T00:47:57;-0.20;99.90
12853;DHT22;6495;51.808;7.478;2023-01-29T00:50:25;-0.20;99.90
12853;DHT22;6495;51.808;7.478;2023-01-29T00:52:53;-0.20;99.90
12853;DHT22;6495;51.808;7.478;2023-01-29T00:55:21;-0.20;99.90
12853;DHT22;6495;51.808;7.478;2023-01-29T00:57:51;-0.20;99.90
12853;DHT22;6495;51.808;7.478;2023-01-29T01:00:20;-0.20;99.90
12853;DHT22;6495;51.808;7.478;2023-01-29T01:02:48;-0.20;99.90
12853;DHT22;6495;51.808;7.478;2023-01-29T01:05:34;-0.20;99.90
12853;DHT22;6495;51.808;7.478;2023-01-29T01:08:02;-0.20;99.90
12853;DHT22;6495;51.808;7.478;2023-01-29T01:10:58;-0.20;99.90
12853;DHT22;6495;51.808;7.478;2023-01-29T01:13:27;-0.20;99.90
12853;DHT22;6495;51.808;7.478;2023-01-29T01:15:56;-0.20;99.90
12853;DHT22;6495;51.808;7.478;2023-01-29T01:18:24;-0.20;99.90
12853;DHT22;6495;51.808;7.478;2023-01-29T01:20:56;-0.20;99.90
12853;DHT22;6495;51.808;7.478;2023-01-29T01:23:25;-0.20;99.90
12853;DHT22;6495;51.808;7.478;2023-01-29T01:25:53;-0.30;99.90
12853;DHT22;6495;51.808;7.478;2023-01-29T01:28:21;-0.30;99.90
12853;DHT22;6495;51.808;7.478;2023-01-29T01:30:51;-0.30;99.90
12853;DHT22;6495;51.808;7.478;2023-01-29T01:33:19;-0.30;99.90
12853;DHT22;6495;51.808;7.478;2023-01-29T01:35:47;-0.40;99.90
12853;DHT22;6495;51.808;7.478;2023-01-29T01:38:15;-0.40;99.90
12853;DHT22;6495;51.808;7.478;2023-01-29T01:40:44;-0.40;99.90
12853;DHT22;6495;51.808;7.478;2023-01-29T01:43:13;-0.40;99.90
12853;DHT22;6495;51.808;7.478;2023-01-29T01:45:41;-0.40;99.90
12853;DHT22;6495;51.808;7.478;2023-01-29T01:48:16;-0.50;99.90
12853;DHT22;6495;51.808;7.478;2023-01-29T01:50:50;-0.40;99.90
12853;DHT22;6495;51.808;7.478;2023-01-29T01:53:25;-0.40;99.90
12853;DHT22;6495;51.808;7.478;2023-01-29T01:56:00;-0.40;99.90
12853;DHT22;6495;51.808;7.478;2023-01-29T01:58:34;-0.40;99.90
12853;DHT22;6495;51.808;7.478;2023-01-29T02:01:06;-0.40;99.90
12853;DHT22;6495;51.808;7.478;2023-01-29T02:03:39;-0.50;99.90
12853;DHT22;6495;51.808;7.478;2023-01-29T02:06:30;-0.50;99.90
12853;DHT22;6495;51.808;7.478;2023-01-29T02:09:19;-0.50;99.90
12853;DHT22;6495;51.808;7.478;2023-01-29T02:12:03;-0.50;99.90
12853;DHT22;6495;51.808;7.478;2023-01-29T02:14:35;-0.60;99.90
12853;DHT22;6495;51.808;7.478;2023-01-29T02:17:05;-0.60;99.90
12853;DHT22;6495;51.808;7.478;2023-01-29T02:19:44;-0.60;99.90
12853;DHT22;6495;51.808;7.478;2023-01-29T02:22:50;-0.60;99.90
12853;DHT22;6495;51.808;7.478;2023-01-29T02:25:51;-0.60;99.90
12853;DHT22;6495;51.808;7.478;2023-01-29T02:28:37;-0.60;99.90
12853;DHT22;6495;51.808;7.478;2023-01-29T02:31:15;-0.50;99.90
12853;DHT22;6495;51.808;7.478;2023-01-29T02:33:58;-0.50;99.90
12853;DHT22;6495;51.808;7.478;2023-01-29T02:36:40;-0.50;99.90
12853;DHT22;6495;51.808;7.478;2023-01-29T02:39:16;-0.40;99.90
12853;DHT22;6495;51.808;7.478;2023-01-29T02:41:56;-0.40;99.90
12853;DHT22;6495;51.808;7.478;2023-01-29T02:44:35;-0.40;99.90
12853;DHT22;6495;51.808;7.478;2023-01-29T02:47:11;-0.30;99.90
12853;DHT22;6495;51.808;7.478;2023-01-29T02:49:47;-0.30;99.90
12853;DHT22;6495;51.808;7.478;2023-01-29T02:52:22;-0.30;99.90
12853;DHT22;6495;51.808;7.478;2023-01-29T02:54:59;-0.30;99.90
12853;DHT22;6495;51.808;7.478;2023-01-29T02:57:36;-0.20;99.90
12853;DHT22;6495;51.808;7.478;2023-01-29T03:00:13;-0.20;99.90
12853;DHT22;6495;51.808;7.478;2023-01-29T03:02:57;-0.20;99.90
12853;DHT22;6495;51.808;7.478;2023-01-29T03:05:32;-0.20;99.90
12853;DHT22;6495;51.808;7.478;2023-01-29T03:08:11;-0.20;99.90
12853;DHT22;6495;51.808;7.478;2023-01-29T03:10:47;-0.20;99.90
12853;DHT22;6495;51.808;7.478;2023-01-29T03:13:28;-0.10;99.90
12853;DHT22;6495;51.808;7.478;2023-01-29T03:16:06;-0.20;99.90
12853;DHT22;6495;51.808;7.478;2023-01-29T03:18:48;-0.10;99.90
12853;DHT22;6495;51.808;7.478;2023-01-29T03:21:24;-0.10;99.90
12853;DHT22;6495;51.808;7.478;2023-01-29T03:24:16;-0.10;99.90
12853;DHT22;6495;51.808;7.478;2023-01-29T03:27:08;-0.10;99.90
12853;DHT22;6495;51.808;7.478;2023-01-29T03:29:57;-0.10;99.90
12853;DHT22;6495;51.808;7.478;2023-01-29T03:32:49;-0.10;99.90
12853;DHT22;6495;51.808;7.478;2023-01-29T03:35:22;0.00;99.90
12853;DHT22;6495;51.808;7.478;2023-01-29T03:38:06;0.00;99.90
12853;DHT22;6495;51.808;7.478;2023-01-29T03:40:48;0.00;99.90
12853;DHT22;6495;51.808;7.478;2023-01-29T03:43:28;0.00;99.90
12853;DHT22;6495;51.808;7.478;2023-01-29T03:46:05;0.00;99.90
12853;DHT22;6495;51.808;7.478;2023-01-29T03:48:40;0.00;99.90
12853;DHT22;6495;51.808;7.478;2023-01-29T03:51:22;0.00;99.90
12853;DHT22;6495;51.808;7.478;2023-01-29T03:54:02;0.00;99.90
12853;DHT22;6495;51.808;7.478;2023-01-29T03:56:44;0.00;99.90
12853;DHT22;6495;51.808;7.478;2023-01-29T03:59:32;0.00;99.90
12853;DHT22;6495;51.808;7.478;2023-01-29T04:02:30;0.00;99.90
12853;DHT22;6495;51.808;7.478;2023-01-29T04:05:13;0.00;99.90
12853;DHT22;6495;51.808;7.478;2023-01-29T04:08:00;0.00;99.90
12853;DHT22;6495;51.808;7.478;2023-01-29T04:10:37;0.00;99.90
12853;DHT22;6495;51.808;7.478;2023-01-29T04:13:09;0.00;99.90
12853;DHT22;6495;51.808;7.478;2023-01-29T04:15:45;0.00;99.90
12853;DHT22;6495;51.808;7.478;2023-01-29T04:18:35;0.00;99.90
12853;DHT22;6495;51.808;7.478;2023-01-29T04:21:08;0.00;99.90
12853;DHT22;6495;51.808;7.478;2023-01-29T04:23:36;0.00;99.90
12853;DHT22;6495;51.808;7.478;2023-01-29T04:26:18;0.00;99.90
12853;DHT22;6495;51.808;7.478;2023-01-29T04:29:08;0.00;99.90
12853;DHT22;6495;51.808;7.478;2023-01-29T04:31:52;0.00;99.90
12853;DHT22;6495;51.808;7.478;2023-01-29T04:34:37;0.00;99.90
12853;DHT22;6495;51.808;7.478;2023-01-29T04:37:25;0.00;99.90
12853;DHT22;6495;51.808;7.478;2023-01-29T04:40:06;0.00;99.90
12853;DHT22;6495;51.808;7.478;2023-01-29T04:42:47;0.00;99.90
12853;DHT22;6495;51.808;7.478;2023-01-29T04:45:26;0.10;99.90
12853;DHT22;6495;51.808;7.478;2023-01-29T04:48:09;0.00;99.90
12853;DHT22;6495;51.808;7.478;2023-01-29T04:50:48;0.00;99.90
12853;DHT22;6495;51.808;7.478;2023-01-29T04:53:27;0.00;99.90
12853;DHT22;6495;51.808;7.478;2023-01-29T04:56:07;0.00;99.90
12853;DHT22;6495;51.808;7.478;2023-01-29T04:58:43;-0.10;99.90
12853;DHT22;6495;51.808;7.478;2023-01-29T05:01:18;-0.10;99.90
12853;DHT22;6495;51.808;7.478;2023-01-29T05:03:52;-0.10;99.90
12853;DHT22;6495;51.808;7.478;2023-01-29T05:06:23;-0.10;99.90
12853;DHT22;6495;51.808;7.478;2023-01-29T05:08:54;-0.10;99.90
12853;DHT22;6495;51.808;7.478;2023-01-29T05:11:24;0.00;99.90
12853;DHT22;6495;51.808;7.478;2023-01-29T05:13:53;0.00;99.90
12853;DHT22;6495;51.808;7.478;2023-01-29T05:16:25;0.00;99.90
12853;DHT22;6495;51.808;7.478;2023-01-29T05:18:56;0.00;99.90
12853;DHT22;6495;51.808;7.478;2023-01-29T05:21:26;0.00;99.90
12853;DHT22;6495;51.808;7.478;2023-01-29T05:24:08;0.10;99.90
12853;DHT22;6495;51.808;7.478;2023-01-29T05:26:37;0.10;99.90
12853;DHT22;6495;51.808;7.478;2023-01-29T05:29:23;0.20;99.90
12853;DHT22;6495;51.808;7.478;2023-01-29T05:31:51;0.20;99.90
12853;DHT22;6495;51.808;7.478;2023-01-29T05:34:19;0.20;99.90
12853;DHT22;6495;51.808;7.478;2023-01-29T05:36:48;0.20;99.90
12853;DHT22;6495;51.808;7.478;2023-01-29T05:39:17;0.20;99.90
12853;DHT22;6495;51.808;7.478;2023-01-29T05:41:45;0.20;99.90
12853;DHT22;6495;51.808;7.478;2023-01-29T05:44:13;0.30;99.90
12853;DHT22;6495;51.808;7.478;2023-01-29T05:46:41;0.30;99.90
12853;DHT22;6495;51.808;7.478;2023-01-29T05:49:11;0.30;99.90
12853;DHT22;6495;51.808;7.478;2023-01-29T05:51:39;0.30;99.90
12853;DHT22;6495;51.808;7.478;2023-01-29T05:54:07;0.40;99.90
12853;DHT22;6495;51.808;7.478;2023-01-29T05:56:38;0.40;99.90
12853;DHT22;6495;51.808;7.478;2023-01-29T05:59:07;0.40;99.90
12853;DHT22;6495;51.808;7.478;2023-01-29T06:01:35;0.40;99.90
12853;DHT22;6495;51.808;7.478;2023-01-29T06:04:03;0.40;99.90
12853;DHT22;6495;51.808;7.478;2023-01-29T06:06:32;0.50;99.90
12853;DHT22;6495;51.808;7.478;2023-01-29T06:09:00;0.50;99.90
12853;DHT22;6495;51.808;7.478;2023-01-29T06:11:28;0.50;99.90
12853;DHT22;6495;51.808;7.478;2023-01-29T06:13:57;0.50;99.90
12853;DHT22;6495;51.808;7.478;2023-01-29T06:16:26;0.50;99.90
12853;DHT22;6495;51.808;7.478;2023-01-29T06:18:54;0.50;99.90
12853;DHT22;6495;51.808;7.478;2023-01-29T06:21:22;0.50;99.90
12853;DHT22;6495;51.808;7.478;2023-01-29T06:23:51;0.50;99.90
12853;DHT22;6495;51.808;7.478;2023-01-29T06:26:19;0.50;99.90
12853;DHT22;6495;51.808;7.478;2023-01-29T06:28:48;0.50;99.90
12853;DHT22;6495;51.808;7.478;2023-01-29T06:31:18;0.50;99.90
12853;DHT22;6495;51.808;7.478;2023-01-29T06:34:03;0.50;99.90
12853;DHT22;6495;51.808;7.478;2023-01-29T06:36:31;0.50;99.90
12853;DHT22;6495;51.808;7.478;2023-01-29T06:38:59;0.50;99.90
12853;DHT22;6495;51.808;7.478;2023-01-29T06:41:27;0.60;99.90
12853;DHT22;6495;51.808;7.478;2023-01-29T06:43:55;0.60;99.90
12853;DHT22;6495;51.808;7.478;2023-01-29T06:46:25;0.60;99.90
12853;DHT22;6495;51.808;7.478;2023-01-29T06:48:53;0.60;99.90
12853;DHT22;6495;51.808;7.478;2023-01-29T06:51:21;0.60;99.90
12853;DHT22;6495;51.808;7.478;2023-01-29T06:53:49;0.60;99.90
12853;DHT22;6495;51.808;7.478;2023-01-29T06:56:17;0.60;99.90
12853;DHT22;6495;51.808;7.478;2023-01-29T06:58:45;0.60;99.90
12853;DHT22;6495;51.808;7.478;2023-01-29T07:01:13;0.60;99.90
12853;DHT22;6495;51.808;7.478;2023-01-29T07:04:02;0.60;99.90
12853;DHT22;6495;51.808;7.478;2023-01-29T07:06:31;0.60;99.90
12853;DHT22;6495;51.808;7.478;2023-01-29T07:08:59;0.70;99.90
12853;DHT22;6495;51.808;7.478;2023-01-29T07:11:28;0.70;99.90
12853;DHT22;6495;51.808;7.478;2023-01-29T07:13:57;0.70;99.90
12853;DHT22;6495;51.808;7.478;2023-01-29T07:16:25;0.70;99.90
12853;DHT22;6495;51.808;7.478;2023-01-29T07:18:54;0.70;99.90
12853;DHT22;6495;51.808;7.478;2023-01-29T07:21:23;0.70;99.90
12853;DHT22;6495;51.808;7.478;2023-01-29T07:23:51;0.70;99.90
12853;DHT22;6495;51.808;7.478;2023-01-29T07:26:20;0.70;99.90
12853;DHT22;6495;51.808;7.478;2023-01-29T07:28:48;0.70;99.90
12853;DHT22;6495;51.808;7.478;2023-01-29T07:31:16;0.70;99.90
12853;DHT22;6495;51.808;7.478;2023-01-29T07:33:45;0.70;99.90
12853;DHT22;6495;51.808;7.478;2023-01-29T07:36:13;0.80;99.90
12853;DHT22;6495;51.808;7.478;2023-01-29T07:38:43;0.80;99.90
12853;DHT22;6495;51.808;7.478;2023-01-29T07:41:16;0.80;99.90
12853;DHT22;6495;51.808;7.478;2023-01-29T07:43:45;0.80;99.90
12853;DHT22;6495;51.808;7.478;2023-01-29T07:46:14;0.80;99.90
12853;DHT22;6495;51.808;7.478;2023-01-29T07:48:42;0.80;99.90
12853;DHT22;6495;51.808;7.478;2023-01-29T07:51:10;0.80;99.90
12853;DHT22;6495;51.808;7.478;2023-01-29T07:53:38;0.80;99.90
12853;DHT22;6495;51.808;7.478;2023-01-29T07:56:08;0.70;99.90
12853;DHT22;6495;51.808;7.478;2023-01-29T07:58:36;0.80;99.90
12853;DHT22;6495;51.808;7.478;2023-01-29T08:01:05;0.80;99.90
12853;DHT22;6495;51.808;7.478;2023-01-29T08:03:34;0.80;99.90
12853;DHT22;6495;51.808;7.478;2023-01-29T08:06:03;0.80;99.90
12853;DHT22;6495;51.808;7.478;2023-01-29T08:08:32;0.80;99.90
12853;DHT22;6495;51.808;7.478;2023-01-29T08:11:01;0.80;99.90
12853;DHT22;6495;51.808;7.478;2023-01-29T08:13:31;0.70;99.90
12853;DHT22;6495;51.808;7.478;2023-01-29T08:16:00;0.80;99.90
12853;DHT22;6495;51.808;7.478;2023-01-29T08:18:43;0.70;99.90
12853;DHT22;6495;51.808;7.478;2023-01-29T08:21:19;0.70;99.90
12853;DHT22;6495;51.808;7.478;2023-01-29T08:23:47;0.70;99.90
12853;DHT22;6495;51.808;7.478;2023-01-29T08:26:15;0.70;99.90
12853;DHT22;6495;51.808;7.478;2023-01-29T08:28:45;0.70;99.90
12853;DHT22;6495;51.808;7.478;2023-01-29T08:31:14;0.70;99.90
12853;DHT22;6495;51.808;7.478;2023-01-29T08:33:42;0.70;99.90
12853;DHT22;6495;51.808;7.478;2023-01-29T08:36:11;0.70;99.90
12853;DHT22;6495;51.808;7.478;2023-01-29T08:38:39;0.70;99.90
12853;DHT22;6495;51.808;7.478;2023-01-29T08:41:07;0.70;99.90
12853;DHT22;6495;51.808;7.478;2023-01-29T08:43:36;0.70;99.90
12853;DHT22;6495;51.808;7.478;2023-01-29T08:46:06;0.70;99.90
12853;DHT22;6495;51.808;7.478;2023-01-29T08:48:35;0.70;99.90
12853;DHT22;6495;51.808;7.478;2023-01-29T08:51:04;0.70;99.90
12853;DHT22;6495;51.808;7.478;2023-01-29T08:53:32;0.70;99.90
12853;DHT22;6495;51.808;7.478;2023-01-29T08:56:01;0.70;99.90
12853;DHT22;6495;51.808;7.478;2023-01-29T09:04:24;0.70;99.90
12853;DHT22;6495;51.808;7.478;2023-01-29T09:06:56;0.70;99.90
12853;DHT22;6495;51.808;7.478;2023-01-29T09:09:29;0.70;99.90
12853;DHT22;6495;51.808;7.478;2023-01-29T09:11:59;0.70;99.90
12853;DHT22;6495;51.808;7.478;2023-01-29T09:14:27;0.80;99.90
12853;DHT22;6495;51.808;7.478;2023-01-29T09:17:06;0.80;99.90
12853;DHT22;6495;51.808;7.478;2023-01-29T09:19:37;0.80;99.90
12853;DHT22;6495;51.808;7.478;2023-01-29T09:22:29;0.80;99.90
12853;DHT22;6495;51.808;7.478;2023-01-29T09:25:09;0.80;99.90
12853;DHT22;6495;51.808;7.478;2023-01-29T09:27:55;0.80;99.90
12853;DHT22;6495;51.808;7.478;2023-01-29T09:30:29;0.80;99.90
12853;DHT22;6495;51.808;7.478;2023-01-29T09:33:12;0.80;99.90
12853;DHT22;6495;51.808;7.478;2023-01-29T09:35:51;0.90;99.90
12853;DHT22;6495;51.808;7.478;2023-01-29T09:38:34;0.90;99.90
12853;DHT22;6495;51.808;7.478;2023-01-29T09:41:26;0.90;99.90
12853;DHT22;6495;51.808;7.478;2023-01-29T09:44:37;0.90;99.90
12853;DHT22;6495;51.808;7.478;2023-01-29T09:47:23;0.90;99.90
12853;DHT22;6495;51.808;7.478;2023-01-29T09:50:02;0.90;99.90
12853;DHT22;6495;51.808;7.478;2023-01-29T09:52:40;1.00;99.90
12853;DHT22;6495;51.808;7.478;2023-01-29T09:55:25;1.00;99.90
12853;DHT22;6495;51.808;7.478;2023-01-29T09:57:58;1.10;99.90
12853;DHT22;6495;51.808;7.478;2023-01-29T10:00:45;1.10;99.90
12853;DHT22;6495;51.808;7.478;2023-01-29T10:03:54;1.10;99.90
12853;DHT22;6495;51.808;7.478;2023-01-29T10:06:53;1.10;99.90
12853;DHT22;6495;51.808;7.478;2023-01-29T10:10:09;1.10;99.90
12853;DHT22;6495;51.808;7.478;2023-01-29T10:13:10;1.10;99.90
12853;DHT22;6495;51.808;7.478;2023-01-29T10:15:58;1.20;99.90
12853;DHT22;6495;51.808;7.478;2023-01-29T10:18:53;1.20;99.90
12853;DHT22;6495;51.808;7.478;2023-01-29T10:21:55;1.20;99.90
12853;DHT22;6495;51.808;7.478;2023-01-29T10:24:37;1.20;99.90
12853;DHT22;6495;51.808;7.478;2023-01-29T10:27:15;1.20;99.90
12853;DHT22;6495;51.808;7.478;2023-01-29T10:29:48;1.30;99.90
12853;DHT22;6495;51.808;7.478;2023-01-29T10:32:25;1.30;99.90
12853;DHT22;6495;51.808;7.478;2023-01-29T10:35:01;1.30;99.90
12853;DHT22;6495;51.808;7.478;2023-01-29T10:37:40;1.30;99.90
12853;DHT22;6495;51.808;7.478;2023-01-29T10:40:17;1.30;99.90
12853;DHT22;6495;51.808;7.478;2023-01-29T10:42:59;1.30;99.90
12853;DHT22;6495;51.808;7.478;2023-01-29T10:45:39;1.30;99.90
12853;DHT22;6495;51.808;7.478;2023-01-29T10:48:38;1.30;99.90
12853;DHT22;6495;51.808;7.478;2023-01-29T10:51:29;1.30;99.90
12853;DHT22;6495;51.808;7.478;2023-01-29T10:54:23;1.40;99.90
12853;DHT22;6495;51.808;7.478;2023-01-29T10:57:10;1.40;99.90
12853;DHT22;6495;51.808;7.478;2023-01-29T11:00:03;1.40;99.90
12853;DHT22;6495;51.808;7.478;2023-01-29T11:02:43;1.40;99.90
12853;DHT22;6495;51.808;7.478;2023-01-29T11:05:19;1.40;99.90
12853;DHT22;6495;51.808;7.478;2023-01-29T11:08:03;1.40;99.90
12853;DHT22;6495;51.808;7.478;2023-01-29T11:10:47;1.40;99.90
12853;DHT22;6495;51.808;7.478;2023-01-29T11:13:31;1.40;99.90
12853;DHT22;6495;51.808;7.478;2023-01-29T11:16:15;1.40;99.90
12853;DHT22;6495;51.808;7.478;2023-01-29T11:18:59;1.50;99.90
12853;DHT22;6495;51.808;7.478;2023-01-29T11:21:56;1.50;99.90
12853;DHT22;6495;51.808;7.478;2023-01-29T11:24:46;1.50;99.90
12853;DHT22;6495;51.808;7.478;2023-01-29T11:27:47;1.50;99.90
12853;DHT22;6495;51.808;7.478;2023-01-29T11:30:38;1.50;99.90
12853;DHT22;6495;51.808;7.478;2023-01-29T11:33:29;1.50;99.90
12853;DHT22;6495;51.808;7.478;2023-01-29T11:36:20;1.50;99.90
12853;DHT22;6495;51.808;7.478;2023-01-29T11:39:15;1.50;99.90
12853;DHT22;6495;51.808;7.478;2023-01-29T11:41:53;1.60;99.90
12853;DHT22;6495;51.808;7.478;2023-01-29T11:44:33;1.60;99.90
12853;DHT22;6495;51.808;7.478;2023-01-29T11:47:19;1.60;99.90
12853;DHT22;6495;51.808;7.478;2023-01-29T11:49:55;1.60;99.90
12853;DHT22;6495;51.808;7.478;2023-01-29T11:52:35;1.60;99.90
12853;DHT22;6495;51.808;7.478;2023-01-29T11:55:17;1.70;99.90
12853;DHT22;6495;51.808;7.478;2023-01-29T12:01:05;1.70;99.90
12853;DHT22;6495;51.808;7.478;2023-01-29T12:03:49;1.70;99.90
12853;DHT22;6495;51.808;7.478;2023-01-29T12:06:41;1.70;99.90
12853;DHT22;6495;51.808;7.478;2023-01-29T12:09:34;1.80;99.90
12853;DHT22;6495;51.808;7.478;2023-01-29T12:12:43;1.80;99.90
12853;DHT22;6495;51.808;7.478;2023-01-29T12:15:17;1.80;99.90
12853;DHT22;6495;51.808;7.478;2023-01-29T12:18:02;1.80;99.90
12853;DHT22;6495;51.808;7.478;2023-01-29T12:20:38;1.80;99.90
12853;DHT22;6495;51.808;7.478;2023-01-29T12:23:34;1.80;99.90
12853;DHT22;6495;51.808;7.478;2023-01-29T12:26:10;1.80;99.90
12853;DHT22;6495;51.808;7.478;2023-01-29T12:28:49;1.90;99.90
12853;DHT22;6495;51.808;7.478;2023-01-29T12:31:33;1.90;99.90
12853;DHT22;6495;51.808;7.478;2023-01-29T12:34:13;1.90;99.90
12853;DHT22;6495;51.808;7.478;2023-01-29T12:36:48;1.90;99.90
12853;DHT22;6495;51.808;7.478;2023-01-29T12:39:21;1.90;99.90
12853;DHT22;6495;51.808;7.478;2023-01-29T12:41:53;2.00;99.90
12853;DHT22;6495;51.808;7.478;2023-01-29T12:44:32;2.00;99.90
12853;DHT22;6495;51.808;7.478;2023-01-29T12:47:13;2.00;99.90
12853;DHT22;6495;51.808;7.478;2023-01-29T12:49:50;2.00;99.90
12853;DHT22;6495;51.808;7.478;2023-01-29T12:52:31;2.00;99.90
12853;DHT22;6495;51.808;7.478;2023-01-29T12:55:10;2.10;99.90
12853;DHT22;6495;51.808;7.478;2023-01-29T12:57:47;2.10;99.90
12853;DHT22;6495;51.808;7.478;2023-01-29T13:00:21;2.10;99.90
12853;DHT22;6495;51.808;7.478;2023-01-29T13:02:55;2.10;99.90
12853;DHT22;6495;51.808;7.478;2023-01-29T13:05:29;2.10;99.90
12853;DHT22;6495;51.808;7.478;2023-01-29T13:08:07;2.10;99.90
12853;DHT22;6495;51.808;7.478;2023-01-29T13:10:43;2.10;99.90
12853;DHT22;6495;51.808;7.478;2023-01-29T13:13:20;2.20;99.90
12853;DHT22;6495;51.808;7.478;2023-01-29T13:15:55;2.20;99.90
12853;DHT22;6495;51.808;7.478;2023-01-29T13:18:41;2.20;99.90
12853;DHT22;6495;51.808;7.478;2023-01-29T13:21:17;2.20;99.90
12853;DHT22;6495;51.808;7.478;2023-01-29T13:23:49;2.20;99.90
12853;DHT22;6495;51.808;7.478;2023-01-29T13:26:24;2.20;99.90
12853;DHT22;6495;51.808;7.478;2023-01-29T13:28:54;2.20;99.90
12853;DHT22;6495;51.808;7.478;2023-01-29T13:31:29;2.20;99.90
12853;DHT22;6495;51.808;7.478;2023-01-29T13:34:19;2.20;99.90
12853;DHT22;6495;51.808;7.478;2023-01-29T13:36:53;2.20;99.90
12853;DHT22;6495;51.808;7.478;2023-01-29T13:39:27;2.30;99.90
12853;DHT22;6495;51.808;7.478;2023-01-29T13:41:59;2.30;99.90
12853;DHT22;6495;51.808;7.478;2023-01-29T13:44:32;2.30;99.90
12853;DHT22;6495;51.808;7.478;2023-01-29T13:47:04;2.30;99.90
12853;DHT22;6495;51.808;7.478;2023-01-29T13:49:37;2.30;99.90
12853;DHT22;6495;51.808;7.478;2023-01-29T13:52:20;2.30;99.90
12853;DHT22;6495;51.808;7.478;2023-01-29T13:54:56;2.30;99.90
12853;DHT22;6495;51.808;7.478;2023-01-29T13:57:46;2.30;99.90
12853;DHT22;6495;51.808;7.478;2023-01-29T14:00:55;2.30;99.90
12853;DHT22;6495;51.808;7.478;2023-01-29T14:03:52;2.30;99.90
12853;DHT22;6495;51.808;7.478;2023-01-29T14:06:48;2.30;99.90
12853;DHT22;6495;51.808;7.478;2023-01-29T14:12:52;2.40;99.90
12853;DHT22;6495;51.808;7.478;2023-01-29T14:15:32;2.40;99.90
12853;DHT22;6495;51.808;7.478;2023-01-29T14:18:19;2.40;99.90
12853;DHT22;6495;51.808;7.478;2023-01-29T14:21:00;2.40;99.90
12853;DHT22;6495;51.808;7.478;2023-01-29T14:23:35;2.40;99.90
12853;DHT22;6495;51.808;7.478;2023-01-29T14:26:29;2.40;99.90
12853;DHT22;6495;51.808;7.478;2023-01-29T14:29:03;2.40;99.90
12853;DHT22;6495;51.808;7.478;2023-01-29T14:31:42;2.40;99.90
12853;DHT22;6495;51.808;7.478;2023-01-29T14:34:19;2.40;99.90
12853;DHT22;6495;51.808;7.478;2023-01-29T14:36:52;2.30;99.90
12853;DHT22;6495;51.808;7.478;2023-01-29T14:39:33;2.30;99.90
12853;DHT22;6495;51.808;7.478;2023-01-29T14:42:15;2.40;99.90
12853;DHT22;6495;51.808;7.478;2023-01-29T14:45:08;2.30;99.90
12853;DHT22;6495;51.808;7.478;2023-01-29T14:51:07;2.40;99.90
12853;DHT22;6495;51.808;7.478;2023-01-29T14:53:52;2.30;99.90
12853;DHT22;6495;51.808;7.478;2023-01-29T14:56:31;2.40;99.90
12853;DHT22;6495;51.808;7.478;2023-01-29T14:59:13;2.40;99.90
12853;DHT22;6495;51.808;7.478;2023-01-29T15:01:51;2.30;99.90
12853;DHT22;6495;51.808;7.478;2023-01-29T15:04:26;2.30;99.90
12853;DHT22;6495;51.808;7.478;2023-01-29T15:07:01;2.40;99.90
12853;DHT22;6495;51.808;7.478;2023-01-29T15:09:38;2.40;99.90
12853;DHT22;6495;51.808;7.478;2023-01-29T15:12:18;2.40;99.90
12853;DHT22;6495;51.808;7.478;2023-01-29T15:15:02;2.40;99.90
12853;DHT22;6495;51.808;7.478;2023-01-29T15:17:40;2.40;99.90
12853;DHT22;6495;51.808;7.478;2023-01-29T15:20:26;2.40;99.90
12853;DHT22;6495;51.808;7.478;2023-01-29T15:22:56;2.40;99.90
12853;DHT22;6495;51.808;7.478;2023-01-29T15:25:25;2.40;99.90
12853;DHT22;6495;51.808;7.478;2023-01-29T15:27:57;2.40;99.90
12853;DHT22;6495;51.808;7.478;2023-01-29T15:30:30;2.40;99.90
12853;DHT22;6495;51.808;7.478;2023-01-29T15:33:02;2.40;99.90
12853;DHT22;6495;51.808;7.478;2023-01-29T15:35:38;2.40;99.90
12853;DHT22;6495;51.808;7.478;2023-01-29T15:38:14;2.40;99.90
12853;DHT22;6495;51.808;7.478;2023-01-29T15:40:51;2.40;99.90
12853;DHT22;6495;51.808;7.478;2023-01-29T15:43:21;2.40;99.90
12853;DHT22;6495;51.808;7.478;2023-01-29T15:45:56;2.40;99.90
12853;DHT22;6495;51.808;7.478;2023-01-29T15:48:30;2.40;99.90
12853;DHT22;6495;51.808;7.478;2023-01-29T15:51:05;2.40;99.90
12853;DHT22;6495;51.808;7.478;2023-01-29T15:53:40;2.40;99.90
12853;DHT22;6495;51.808;7.478;2023-01-29T15:56:16;2.40;99.90
12853;DHT22;6495;51.808;7.478;2023-01-29T15:58:48;2.40;99.90
12853;DHT22;6495;51.808;7.478;2023-01-29T16:01:17;2.40;99.90
12853;DHT22;6495;51.808;7.478;2023-01-29T16:03:49;2.40;99.90
12853;DHT22;6495;51.808;7.478;2023-01-29T16:06:18;2.40;99.90
12853;DHT22;6495;51.808;7.478;2023-01-29T16:08:50;2.40;99.90
12853;DHT22;6495;51.808;7.478;2023-01-29T16:11:21;2.40;99.90
12853;DHT22;6495;51.808;7.478;2023-01-29T16:13:50;2.30;99.90
12853;DHT22;6495;51.808;7.478;2023-01-29T16:16:22;2.30;99.90
12853;DHT22;6495;51.808;7.478;2023-01-29T16:18:54;2.30;99.90
12853;DHT22;6495;51.808;7.478;2023-01-29T16:21:29;2.30;99.90
12853;DHT22;6495;51.808;7.478;2023-01-29T16:24:03;2.30;99.90
12853;DHT22;6495;51.808;7.478;2023-01-29T16:26:36;2.30;99.90
12853;DHT22;6495;51.808;7.478;2023-01-29T16:29:10;2.30;99.90
12853;DHT22;6495;51.808;7.478;2023-01-29T16:31:42;2.30;99.90
12853;DHT22;6495;51.808;7.478;2023-01-29T16:34:26;2.30;99.90
12853;DHT22;6495;51.808;7.478;2023-01-29T16:36:58;2.30;99.90
12853;DHT22;6495;51.808;7.478;2023-01-29T16:39:32;2.30;99.90
12853;DHT22;6495;51.808;7.478;2023-01-29T16:42:20;2.30;99.90
12853;DHT22;6495;51.808;7.478;2023-01-29T16:44:59;2.30;99.90
12853;DHT22;6495;51.808;7.478;2023-01-29T16:47:33;2.30;99.90
12853;DHT22;6495;51.808;7.478;2023-01-29T16:50:23;2.30;99.90
12853;DHT22;6495;51.808;7.478;2023-01-29T16:53:12;2.30;99.90
12853;DHT22;6495;51.808;7.478;2023-01-29T16:55:47;2.30;99.90
12853;DHT22;6495;51.808;7.478;2023-01-29T16:58:19;2.30;99.90
12853;DHT22;6495;51.808;7.478;2023-01-29T17:00:52;2.30;99.90
12853;DHT22;6495;51.808;7.478;2023-01-29T17:03:24;2.30;99.90
12853;DHT22;6495;51.808;7.478;2023-01-29T17:05:55;2.30;99.90
12853;DHT22;6495;51.808;7.478;2023-01-29T17:08:26;2.40;99.90
12853;DHT22;6495;51.808;7.478;2023-01-29T17:10:58;2.40;99.90
12853;DHT22;6495;51.808;7.478;2023-01-29T17:13:29;2.40;99.90